sensor_id;sensor_type;location;lat;lon;timestamp;P1;durP1;ratioP1;P2;durP2;ratioP2
70560;SDS011;58109;53.570;10.084;2023-05-10T00:00:45;10.03;;;3.50;;
70560;SDS011;58109;53.570;10.084;2023-05-10T00:03:11;6.03;;;2.93;;
70560;SDS011;58109;53.570;10.084;2023-05-10T00:05:36;10.83;;;4.10;;
70560;SDS011;58109;53.570;10.084;2023-05-10T00:08:02;4.63;;;3.33;;
70560;SDS011;58109;53.570;10.084;2023-05-10T00:10:27;5.57;;;3.70;;
70560;SDS011;58109;53.570;10.084;2023-05-10T00:12:53;6.87;;;4.27;;
70560;SDS011;58109;53.570;10.084;2023-05-10T00:15:18;13.07;;;3.97;;
70560;SDS011;58109;53.570;10.084;2023-05-10T00:17:43;3.83;;;3.23;;
70560;SDS011;58109;53.570;10.084;2023-05-10T00:20:11;5.00;;;3.10;;
70560;SDS011;58109;53.570;10.084;2023-05-10T00:22:37;5.90;;;3.67;;
70560;SDS011;58109;53.570;10.084;2023-05-10T00:25:02;4.93;;;3.27;;
70560;SDS011;58109;53.570;10.084;2023-05-10T00:27:31;3.93;;;2.90;;
70560;SDS011;58109;53.570;10.084;2023-05-10T00:29:59;5.03;;;3.30;;
70560;SDS011;58109;53.570;10.084;2023-05-10T00:32:27;5.03;;;3.33;;
70560;SDS011;58109;53.570;10.084;2023-05-10T00:34:55;14.83;;;3.47;;
70560;SDS011;58109;53.570;10.084;2023-05-10T00:37:23;9.97;;;3.83;;
70560;SDS011;58109;53.570;10.084;2023-05-10T00:39:51;6.00;;;3.30;;
70560;SDS011;58109;53.570;10.084;2023-05-10T00:42:19;3.67;;;3.23;;
70560;SDS011;58109;53.570;10.084;2023-05-10T00:44:44;7.83;;;3.83;;
70560;SDS011;58109;53.570;10.084;2023-05-10T00:47:11;4.17;;;3.00;;
70560;SDS011;58109;53.570;10.084;2023-05-10T00:49:37;8.63;;;3.70;;
70560;SDS011;58109;53.570;10.084;2023-05-10T00:52:05;6.90;;;3.80;;
70560;SDS011;58109;53.570;10.084;2023-05-10T00:54:33;12.67;;;3.70;;
70560;SDS011;58109;53.570;10.084;2023-05-10T00:56:58;4.73;;;3.23;;
70560;SDS011;58109;53.570;10.084;2023-05-10T00:59:24;4.93;;;3.53;;
70560;SDS011;58109;53.570;10.084;2023-05-10T01:01:50;13.93;;;3.30;;
70560;SDS011;58109;53.570;10.084;2023-05-10T01:04:16;6.13;;;3.37;;
70560;SDS011;58109;53.570;10.084;2023-05-10T01:06:42;8.80;;;3.60;;
70560;SDS011;58109;53.570;10.084;2023-05-10T01:09:07;6.50;;;3.97;;
70560;SDS011;58109;53.570;10.084;2023-05-10T01:11:34;10.00;;;5.17;;
70560;SDS011;58109;53.570;10.084;2023-05-10T01:14:00;7.67;;;4.00;;
70560;SDS011;58109;53.570;10.084;2023-05-10T01:16:29;7.13;;;3.90;;
70560;SDS011;58109;53.570;10.084;2023-05-10T01:18:59;5.03;;;3.20;;
70560;SDS011;58109;53.570;10.084;2023-05-10T01:29:11;9.73;;;3.93;;
70560;SDS011;58109;53.570;10.084;2023-05-10T01:31:54;12.33;;;3.80;;
70560;SDS011;58109;53.570;10.084;2023-05-10T01:34:42;7.57;;;3.60;;
70560;SDS011;58109;53.570;10.084;2023-05-10T01:37:28;11.13;;;3.97;;
70560;SDS011;58109;53.570;10.084;2023-05-10T01:42:38;11.43;;;4.30;;
70560;SDS011;58109;53.570;10.084;2023-05-10T01:47:38;7.20;;;3.83;;
70560;SDS011;58109;53.570;10.084;2023-05-10T01:50:06;4.93;;;3.10;;
70560;SDS011;58109;53.570;10.084;2023-05-10T01:52:41;4.30;;;3.07;;
70560;SDS011;58109;53.570;10.084;2023-05-10T01:55:15;7.97;;;4.00;;
70560;SDS011;58109;53.570;10.084;2023-05-10T01:57:42;4.93;;;3.73;;
70560;SDS011;58109;53.570;10.084;2023-05-10T02:00:09;7.20;;;4.30;;
70560;SDS011;58109;53.570;10.084;2023-05-10T02:02:39;8.37;;;3.77;;
70560;SDS011;58109;53.570;10.084;2023-05-10T02:05:07;7.70;;;3.83;;
70560;SDS011;58109;53.570;10.084;2023-05-10T02:07:34;7.50;;;3.40;;
70560;SDS011;58109;53.570;10.084;2023-05-10T02:10:01;5.10;;;3.50;;
70560;SDS011;58109;53.570;10.084;2023-05-10T02:12:28;6.50;;;3.50;;
70560;SDS011;58109;53.570;10.084;2023-05-10T02:14:53;4.87;;;3.60;;
70560;SDS011;58109;53.570;10.084;2023-05-10T02:17:21;5.93;;;4.00;;
70560;SDS011;58109;53.570;10.084;2023-05-10T02:19:48;11.37;;;3.50;;
70560;SDS011;58109;53.570;10.084;2023-05-10T02:22:14;9.20;;;3.63;;
70560;SDS011;58109;53.570;10.084;2023-05-10T02:24:42;4.90;;;3.67;;
70560;SDS011;58109;53.570;10.084;2023-05-10T02:27:08;7.83;;;3.40;;
70560;SDS011;58109;53.570;10.084;2023-05-10T02:29:34;5.90;;;3.53;;
70560;SDS011;58109;53.570;10.084;2023-05-10T02:32:00;12.43;;;4.03;;
70560;SDS011;58109;53.570;10.084;2023-05-10T02:34:26;8.77;;;3.90;;
70560;SDS011;58109;53.570;10.084;2023-05-10T02:36:55;7.00;;;3.80;;
70560;SDS011;58109;53.570;10.084;2023-05-10T02:39:23;7.80;;;3.33;;
70560;SDS011;58109;53.570;10.084;2023-05-10T02:41:50;8.80;;;3.80;;
70560;SDS011;58109;53.570;10.084;2023-05-10T02:44:18;5.03;;;3.60;;
70560;SDS011;58109;53.570;10.084;2023-05-10T02:46:45;3.90;;;3.50;;
70560;SDS011;58109;53.570;10.084;2023-05-10T02:49:10;4.93;;;3.57;;
70560;SDS011;58109;53.570;10.084;2023-05-10T02:51:37;3.90;;;3.60;;
70560;SDS011;58109;53.570;10.084;2023-05-10T02:54:10;8.50;;;3.07;;
70560;SDS011;58109;53.570;10.084;2023-05-10T02:56:40;8.83;;;3.83;;
70560;SDS011;58109;53.570;10.084;2023-05-10T02:59:10;8.10;;;3.80;;
70560;SDS011;58109;53.570;10.084;2023-05-10T03:01:36;7.10;;;3.83;;
70560;SDS011;58109;53.570;10.084;2023-05-10T03:04:01;7.83;;;3.30;;
70560;SDS011;58109;53.570;10.084;2023-05-10T03:06:32;5.57;;;4.00;;
70560;SDS011;58109;53.570;10.084;2023-05-10T03:08:59;15.93;;;5.53;;
70560;SDS011;58109;53.570;10.084;2023-05-10T03:11:28;6.37;;;3.83;;
70560;SDS011;58109;53.570;10.084;2023-05-10T03:17:13;6.70;;;4.00;;
70560;SDS011;58109;53.570;10.084;2023-05-10T03:19:56;6.53;;;3.97;;
70560;SDS011;58109;53.570;10.084;2023-05-10T03:22:30;9.67;;;4.40;;
70560;SDS011;58109;53.570;10.084;2023-05-10T03:24:57;8.90;;;3.30;;
70560;SDS011;58109;53.570;10.084;2023-05-10T03:27:23;10.33;;;3.90;;
70560;SDS011;58109;53.570;10.084;2023-05-10T03:29:49;5.53;;;3.50;;
70560;SDS011;58109;53.570;10.084;2023-05-10T03:32:16;8.07;;;3.60;;
70560;SDS011;58109;53.570;10.084;2023-05-10T03:34:43;8.80;;;3.57;;
70560;SDS011;58109;53.570;10.084;2023-05-10T03:37:09;6.43;;;3.70;;
70560;SDS011;58109;53.570;10.084;2023-05-10T03:39:34;17.73;;;3.90;;
70560;SDS011;58109;53.570;10.084;2023-05-10T03:42:02;7.07;;;3.77;;
70560;SDS011;58109;53.570;10.084;2023-05-10T03:44:28;6.63;;;3.80;;
70560;SDS011;58109;53.570;10.084;2023-05-10T03:46:58;15.30;;;4.80;;
70560;SDS011;58109;53.570;10.084;2023-05-10T03:49:24;12.57;;;4.23;;
70560;SDS011;58109;53.570;10.084;2023-05-10T03:51:49;6.87;;;4.10;;
70560;SDS011;58109;53.570;10.084;2023-05-10T03:54:15;8.20;;;4.00;;
70560;SDS011;58109;53.570;10.084;2023-05-10T03:56:40;9.67;;;3.80;;
70560;SDS011;58109;53.570;10.084;2023-05-10T03:59:08;9.13;;;4.13;;
70560;SDS011;58109;53.570;10.084;2023-05-10T04:01:34;6.00;;;3.70;;
70560;SDS011;58109;53.570;10.084;2023-05-10T04:03:59;27.93;;;4.80;;
70560;SDS011;58109;53.570;10.084;2023-05-10T04:06:25;5.50;;;3.80;;
70560;SDS011;58109;53.570;10.084;2023-05-10T04:08:53;8.00;;;3.60;;
70560;SDS011;58109;53.570;10.084;2023-05-10T04:11:18;9.33;;;4.50;;
70560;SDS011;58109;53.570;10.084;2023-05-10T04:13:49;11.50;;;3.97;;
70560;SDS011;58109;53.570;10.084;2023-05-10T04:16:14;5.20;;;3.63;;
70560;SDS011;58109;53.570;10.084;2023-05-10T04:18:40;6.93;;;4.33;;
70560;SDS011;58109;53.570;10.084;2023-05-10T04:21:10;6.43;;;4.30;;
70560;SDS011;58109;53.570;10.084;2023-05-10T04:23:39;8.73;;;4.80;;
70560;SDS011;58109;53.570;10.084;2023-05-10T04:26:07;6.97;;;3.90;;
70560;SDS011;58109;53.570;10.084;2023-05-10T04:28:33;7.60;;;3.90;;
70560;SDS011;58109;53.570;10.084;2023-05-10T04:31:02;7.93;;;3.67;;
70560;SDS011;58109;53.570;10.084;2023-05-10T04:33:33;11.10;;;4.00;;
70560;SDS011;58109;53.570;10.084;2023-05-10T04:36:03;8.57;;;4.10;;
70560;SDS011;58109;53.570;10.084;2023-05-10T04:38:28;14.10;;;3.90;;
70560;SDS011;58109;53.570;10.084;2023-05-10T04:40:54;6.60;;;4.10;;
70560;SDS011;58109;53.570;10.084;2023-05-10T04:43:28;9.27;;;4.53;;
70560;SDS011;58109;53.570;10.084;2023-05-10T04:45:55;8.00;;;4.33;;
70560;SDS011;58109;53.570;10.084;2023-05-10T04:48:24;5.47;;;3.57;;
70560;SDS011;58109;53.570;10.084;2023-05-10T04:50:52;9.67;;;4.60;;
70560;SDS011;58109;53.570;10.084;2023-05-10T04:53:17;5.83;;;4.40;;
70560;SDS011;58109;53.570;10.084;2023-05-10T04:55:43;5.20;;;3.53;;
70560;SDS011;58109;53.570;10.084;2023-05-10T04:58:11;7.30;;;4.23;;
70560;SDS011;58109;53.570;10.084;2023-05-10T05:00:36;9.10;;;4.27;;
70560;SDS011;58109;53.570;10.084;2023-05-10T05:03:01;12.43;;;4.40;;
70560;SDS011;58109;53.570;10.084;2023-05-10T05:05:30;8.53;;;3.90;;
70560;SDS011;58109;53.570;10.084;2023-05-10T05:07:57;6.93;;;4.00;;
70560;SDS011;58109;53.570;10.084;2023-05-10T05:10:25;5.03;;;3.70;;
70560;SDS011;58109;53.570;10.084;2023-05-10T05:12:53;7.33;;;3.83;;
70560;SDS011;58109;53.570;10.084;2023-05-10T05:15:21;8.13;;;4.10;;
70560;SDS011;58109;53.570;10.084;2023-05-10T05:17:46;13.60;;;4.47;;
70560;SDS011;58109;53.570;10.084;2023-05-10T05:20:12;5.70;;;3.90;;
70560;SDS011;58109;53.570;10.084;2023-05-10T05:22:38;8.67;;;4.10;;
70560;SDS011;58109;53.570;10.084;2023-05-10T05:25:06;13.83;;;4.17;;
70560;SDS011;58109;53.570;10.084;2023-05-10T05:27:31;5.10;;;4.13;;
70560;SDS011;58109;53.570;10.084;2023-05-10T05:29:59;6.70;;;3.97;;
70560;SDS011;58109;53.570;10.084;2023-05-10T05:32:27;12.00;;;4.33;;
70560;SDS011;58109;53.570;10.084;2023-05-10T05:34:52;7.90;;;4.40;;
70560;SDS011;58109;53.570;10.084;2023-05-10T05:37:21;7.13;;;3.97;;
70560;SDS011;58109;53.570;10.084;2023-05-10T05:39:49;5.57;;;3.60;;
70560;SDS011;58109;53.570;10.084;2023-05-10T05:42:17;12.00;;;4.63;;
70560;SDS011;58109;53.570;10.084;2023-05-10T05:44:43;8.03;;;4.03;;
70560;SDS011;58109;53.570;10.084;2023-05-10T05:47:11;5.80;;;4.10;;
70560;SDS011;58109;53.570;10.084;2023-05-10T05:49:42;4.77;;;3.80;;
70560;SDS011;58109;53.570;10.084;2023-05-10T05:52:10;7.43;;;4.43;;
70560;SDS011;58109;53.570;10.084;2023-05-10T05:54:36;7.47;;;4.37;;
70560;SDS011;58109;53.570;10.084;2023-05-10T05:57:01;7.97;;;3.63;;
70560;SDS011;58109;53.570;10.084;2023-05-10T05:59:29;8.83;;;4.33;;
70560;SDS011;58109;53.570;10.084;2023-05-10T06:01:54;7.13;;;3.70;;
70560;SDS011;58109;53.570;10.084;2023-05-10T06:04:22;13.93;;;4.60;;
70560;SDS011;58109;53.570;10.084;2023-05-10T06:06:47;4.83;;;3.77;;
70560;SDS011;58109;53.570;10.084;2023-05-10T06:09:15;9.70;;;4.40;;
70560;SDS011;58109;53.570;10.084;2023-05-10T06:11:41;6.00;;;3.90;;
70560;SDS011;58109;53.570;10.084;2023-05-10T06:14:08;12.33;;;4.50;;
70560;SDS011;58109;53.570;10.084;2023-05-10T06:16:36;6.33;;;3.50;;
70560;SDS011;58109;53.570;10.084;2023-05-10T06:19:02;7.70;;;4.37;;
70560;SDS011;58109;53.570;10.084;2023-05-10T06:21:29;5.57;;;3.50;;
70560;SDS011;58109;53.570;10.084;2023-05-10T06:23:59;13.90;;;4.37;;
70560;SDS011;58109;53.570;10.084;2023-05-10T06:26:27;14.60;;;4.27;;
70560;SDS011;58109;53.570;10.084;2023-05-10T06:28:55;7.50;;;3.97;;
70560;SDS011;58109;53.570;10.084;2023-05-10T06:31:25;10.53;;;4.17;;
70560;SDS011;58109;53.570;10.084;2023-05-10T06:33:51;10.37;;;3.50;;
70560;SDS011;58109;53.570;10.084;2023-05-10T06:36:16;8.37;;;4.03;;
70560;SDS011;58109;53.570;10.084;2023-05-10T06:38:41;16.80;;;4.10;;
70560;SDS011;58109;53.570;10.084;2023-05-10T06:41:12;10.40;;;4.23;;
70560;SDS011;58109;53.570;10.084;2023-05-10T06:43:37;13.43;;;4.17;;
70560;SDS011;58109;53.570;10.084;2023-05-10T06:46:06;5.33;;;3.53;;
70560;SDS011;58109;53.570;10.084;2023-05-10T06:48:33;14.50;;;4.20;;
70560;SDS011;58109;53.570;10.084;2023-05-10T06:50:59;7.40;;;4.23;;
70560;SDS011;58109;53.570;10.084;2023-05-10T06:53:25;13.70;;;4.17;;
70560;SDS011;58109;53.570;10.084;2023-05-10T06:55:50;9.57;;;4.20;;
70560;SDS011;58109;53.570;10.084;2023-05-10T06:58:18;8.30;;;4.37;;
70560;SDS011;58109;53.570;10.084;2023-05-10T07:00:46;6.73;;;3.90;;
70560;SDS011;58109;53.570;10.084;2023-05-10T07:03:12;6.53;;;4.50;;
70560;SDS011;58109;53.570;10.084;2023-05-10T07:05:40;10.17;;;4.63;;
70560;SDS011;58109;53.570;10.084;2023-05-10T07:08:05;17.57;;;4.73;;
70560;SDS011;58109;53.570;10.084;2023-05-10T07:10:36;9.93;;;4.37;;
70560;SDS011;58109;53.570;10.084;2023-05-10T07:13:03;8.63;;;4.37;;
70560;SDS011;58109;53.570;10.084;2023-05-10T07:15:29;7.50;;;4.20;;
70560;SDS011;58109;53.570;10.084;2023-05-10T07:17:54;7.30;;;4.20;;
70560;SDS011;58109;53.570;10.084;2023-05-10T07:20:23;8.70;;;4.23;;
70560;SDS011;58109;53.570;10.084;2023-05-10T07:22:48;6.03;;;4.30;;
70560;SDS011;58109;53.570;10.084;2023-05-10T07:25:14;10.10;;;4.90;;
70560;SDS011;58109;53.570;10.084;2023-05-10T07:27:39;5.43;;;4.20;;
70560;SDS011;58109;53.570;10.084;2023-05-10T07:30:05;7.00;;;4.43;;
70560;SDS011;58109;53.570;10.084;2023-05-10T07:32:30;11.30;;;4.47;;
70560;SDS011;58109;53.570;10.084;2023-05-10T07:34:58;10.80;;;4.53;;
70560;SDS011;58109;53.570;10.084;2023-05-10T07:37:24;7.00;;;4.63;;
70560;SDS011;58109;53.570;10.084;2023-05-10T07:39:52;11.17;;;4.20;;
70560;SDS011;58109;53.570;10.084;2023-05-10T07:42:17;14.33;;;5.00;;
70560;SDS011;58109;53.570;10.084;2023-05-10T07:44:43;13.63;;;4.77;;
70560;SDS011;58109;53.570;10.084;2023-05-10T07:47:11;4.17;;;3.70;;
70560;SDS011;58109;53.570;10.084;2023-05-10T07:49:36;5.60;;;4.20;;
70560;SDS011;58109;53.570;10.084;2023-05-10T07:52:02;11.90;;;4.83;;
70560;SDS011;58109;53.570;10.084;2023-05-10T07:54:30;12.83;;;4.60;;
70560;SDS011;58109;53.570;10.084;2023-05-10T07:56:56;9.53;;;4.30;;
70560;SDS011;58109;53.570;10.084;2023-05-10T07:59:21;10.13;;;4.00;;
70560;SDS011;58109;53.570;10.084;2023-05-10T08:01:47;10.97;;;4.80;;
70560;SDS011;58109;53.570;10.084;2023-05-10T08:04:14;13.27;;;4.57;;
70560;SDS011;58109;53.570;10.084;2023-05-10T08:06:42;15.23;;;3.63;;
70560;SDS011;58109;53.570;10.084;2023-05-10T08:09:08;9.50;;;4.40;;
70560;SDS011;58109;53.570;10.084;2023-05-10T08:11:34;7.30;;;4.37;;
70560;SDS011;58109;53.570;10.084;2023-05-10T08:14:00;7.63;;;4.40;;
70560;SDS011;58109;53.570;10.084;2023-05-10T08:16:25;7.10;;;4.23;;
70560;SDS011;58109;53.570;10.084;2023-05-10T08:18:53;4.43;;;3.80;;
70560;SDS011;58109;53.570;10.084;2023-05-10T08:21:20;6.70;;;3.43;;
70560;SDS011;58109;53.570;10.084;2023-05-10T08:23:45;5.33;;;4.23;;
70560;SDS011;58109;53.570;10.084;2023-05-10T08:26:11;8.43;;;4.97;;
70560;SDS011;58109;53.570;10.084;2023-05-10T08:28:36;12.13;;;4.50;;
70560;SDS011;58109;53.570;10.084;2023-05-10T08:31:05;8.20;;;4.77;;
70560;SDS011;58109;53.570;10.084;2023-05-10T08:33:30;8.33;;;3.87;;
70560;SDS011;58109;53.570;10.084;2023-05-10T08:35:58;9.17;;;5.10;;
70560;SDS011;58109;53.570;10.084;2023-05-10T08:38:23;6.53;;;4.37;;
70560;SDS011;58109;53.570;10.084;2023-05-10T08:40:50;11.20;;;6.00;;
70560;SDS011;58109;53.570;10.084;2023-05-10T08:43:21;9.40;;;4.00;;
70560;SDS011;58109;53.570;10.084;2023-05-10T08:45:49;6.80;;;4.10;;
70560;SDS011;58109;53.570;10.084;2023-05-10T08:48:18;6.33;;;4.33;;
70560;SDS011;58109;53.570;10.084;2023-05-10T08:50:44;5.93;;;4.03;;
70560;SDS011;58109;53.570;10.084;2023-05-10T08:53:12;10.00;;;4.00;;
70560;SDS011;58109;53.570;10.084;2023-05-10T08:55:38;12.17;;;4.43;;
70560;SDS011;58109;53.570;10.084;2023-05-10T08:58:09;8.87;;;4.23;;
70560;SDS011;58109;53.570;10.084;2023-05-10T09:00:37;9.60;;;4.77;;
70560;SDS011;58109;53.570;10.084;2023-05-10T09:03:03;9.77;;;4.53;;
70560;SDS011;58109;53.570;10.084;2023-05-10T09:05:30;8.10;;;4.07;;
70560;SDS011;58109;53.570;10.084;2023-05-10T09:07:55;8.27;;;4.63;;
70560;SDS011;58109;53.570;10.084;2023-05-10T09:10:21;9.60;;;3.87;;
70560;SDS011;58109;53.570;10.084;2023-05-10T09:12:49;8.50;;;4.30;;
70560;SDS011;58109;53.570;10.084;2023-05-10T09:15:17;10.80;;;5.17;;
70560;SDS011;58109;53.570;10.084;2023-05-10T09:17:48;13.27;;;5.20;;
70560;SDS011;58109;53.570;10.084;2023-05-10T09:20:14;7.10;;;4.53;;
70560;SDS011;58109;53.570;10.084;2023-05-10T09:22:40;8.07;;;4.90;;
70560;SDS011;58109;53.570;10.084;2023-05-10T09:27:32;10.03;;;5.03;;
70560;SDS011;58109;53.570;10.084;2023-05-10T09:29:58;11.40;;;5.53;;
70560;SDS011;58109;53.570;10.084;2023-05-10T09:35:07;7.60;;;5.37;;
70560;SDS011;58109;53.570;10.084;2023-05-10T09:37:36;8.67;;;4.80;;
70560;SDS011;58109;53.570;10.084;2023-05-10T09:40:06;10.23;;;4.07;;
70560;SDS011;58109;53.570;10.084;2023-05-10T09:42:35;9.60;;;5.60;;
70560;SDS011;58109;53.570;10.084;2023-05-10T09:45:01;12.80;;;4.30;;
70560;SDS011;58109;53.570;10.084;2023-05-10T09:47:32;12.40;;;5.00;;
70560;SDS011;58109;53.570;10.084;2023-05-10T09:50:04;8.20;;;4.80;;
70560;SDS011;58109;53.570;10.084;2023-05-10T09:52:48;13.93;;;5.60;;
70560;SDS011;58109;53.570;10.084;2023-05-10T09:55:22;12.90;;;5.00;;
70560;SDS011;58109;53.570;10.084;2023-05-10T09:57:49;10.53;;;5.30;;
70560;SDS011;58109;53.570;10.084;2023-05-10T10:00:25;10.80;;;5.90;;
70560;SDS011;58109;53.570;10.084;2023-05-10T10:02:55;10.40;;;5.20;;
70560;SDS011;58109;53.570;10.084;2023-05-10T10:05:28;7.87;;;5.20;;
70560;SDS011;58109;53.570;10.084;2023-05-10T10:07:55;9.90;;;5.33;;
70560;SDS011;58109;53.570;10.084;2023-05-10T10:10:21;15.90;;;7.50;;
70560;SDS011;58109;53.570;10.084;2023-05-10T10:12:49;11.30;;;6.40;;
70560;SDS011;58109;53.570;10.084;2023-05-10T10:15:17;9.30;;;6.13;;
70560;SDS011;58109;53.570;10.084;2023-05-10T10:17:45;13.60;;;6.47;;
70560;SDS011;58109;53.570;10.084;2023-05-10T10:20:11;16.53;;;7.63;;
70560;SDS011;58109;53.570;10.084;2023-05-10T10:22:37;14.40;;;7.03;;
70560;SDS011;58109;53.570;10.084;2023-05-10T10:25:04;11.30;;;6.30;;
70560;SDS011;58109;53.570;10.084;2023-05-10T10:35:39;10.37;;;7.17;;
70560;SDS011;58109;53.570;10.084;2023-05-10T10:38:05;10.63;;;7.60;;
70560;SDS011;58109;53.570;10.084;2023-05-10T10:40:34;14.60;;;7.70;;
70560;SDS011;58109;53.570;10.084;2023-05-10T10:48:47;16.90;;;7.53;;
70560;SDS011;58109;53.570;10.084;2023-05-10T10:51:17;16.80;;;8.00;;
70560;SDS011;58109;53.570;10.084;2023-05-10T10:53:45;14.10;;;8.10;;
70560;SDS011;58109;53.570;10.084;2023-05-10T10:56:12;13.40;;;7.70;;
70560;SDS011;58109;53.570;10.084;2023-05-10T10:58:48;13.47;;;7.30;;
70560;SDS011;58109;53.570;10.084;2023-05-10T11:01:18;14.57;;;7.77;;
70560;SDS011;58109;53.570;10.084;2023-05-10T11:04:31;11.47;;;7.30;;
70560;SDS011;58109;53.570;10.084;2023-05-10T11:06:33;12.27;;;8.60;;
70560;SDS011;58109;53.570;10.084;2023-05-10T11:09:10;10.80;;;7.67;;
70560;SDS011;58109;53.570;10.084;2023-05-10T11:11:37;12.60;;;8.20;;
70560;SDS011;58109;53.570;10.084;2023-05-10T11:14:19;12.60;;;8.07;;
70560;SDS011;58109;53.570;10.084;2023-05-10T11:16:48;15.20;;;9.00;;
70560;SDS011;58109;53.570;10.084;2023-05-10T11:19:16;12.23;;;7.73;;
70560;SDS011;58109;53.570;10.084;2023-05-10T11:22:12;12.20;;;8.70;;
70560;SDS011;58109;53.570;10.084;2023-05-10T11:24:55;11.20;;;8.17;;
70560;SDS011;58109;53.570;10.084;2023-05-10T11:27:21;17.50;;;7.27;;
70560;SDS011;58109;53.570;10.084;2023-05-10T11:29:50;15.33;;;7.80;;
70560;SDS011;58109;53.570;10.084;2023-05-10T11:32:16;14.60;;;8.50;;
70560;SDS011;58109;53.570;10.084;2023-05-10T11:34:46;18.33;;;8.73;;
70560;SDS011;58109;53.570;10.084;2023-05-10T11:37:17;13.83;;;8.40;;
70560;SDS011;58109;53.570;10.084;2023-05-10T11:39:45;13.73;;;9.10;;
70560;SDS011;58109;53.570;10.084;2023-05-10T11:42:12;13.77;;;7.63;;
70560;SDS011;58109;53.570;10.084;2023-05-10T11:44:37;19.23;;;9.30;;
70560;SDS011;58109;53.570;10.084;2023-05-10T11:47:03;22.40;;;8.70;;
70560;SDS011;58109;53.570;10.084;2023-05-10T11:49:28;14.40;;;9.00;;
70560;SDS011;58109;53.570;10.084;2023-05-10T11:52:08;17.83;;;9.50;;
70560;SDS011;58109;53.570;10.084;2023-05-10T11:54:42;17.20;;;9.87;;
70560;SDS011;58109;53.570;10.084;2023-05-10T11:57:10;19.33;;;9.60;;
70560;SDS011;58109;53.570;10.084;2023-05-10T11:59:38;18.00;;;10.37;;
70560;SDS011;58109;53.570;10.084;2023-05-10T12:02:05;13.67;;;9.70;;
70560;SDS011;58109;53.570;10.084;2023-05-10T12:04:33;18.67;;;9.80;;
70560;SDS011;58109;53.570;10.084;2023-05-10T12:07:01;24.20;;;11.10;;
70560;SDS011;58109;53.570;10.084;2023-05-10T12:09:27;14.90;;;10.50;;
70560;SDS011;58109;53.570;10.084;2023-05-10T12:11:55;24.70;;;10.80;;
70560;SDS011;58109;53.570;10.084;2023-05-10T12:14:21;21.43;;;11.60;;
70560;SDS011;58109;53.570;10.084;2023-05-10T12:16:49;17.10;;;10.53;;
70560;SDS011;58109;53.570;10.084;2023-05-10T12:19:19;18.30;;;10.97;;
70560;SDS011;58109;53.570;10.084;2023-05-10T12:21:47;20.10;;;9.27;;
70560;SDS011;58109;53.570;10.084;2023-05-10T12:24:15;25.97;;;9.80;;
70560;SDS011;58109;53.570;10.084;2023-05-10T12:26:45;13.93;;;9.10;;
70560;SDS011;58109;53.570;10.084;2023-05-10T12:31:56;16.90;;;9.63;;
70560;SDS011;58109;53.570;10.084;2023-05-10T12:34:33;15.20;;;10.87;;
70560;SDS011;58109;53.570;10.084;2023-05-10T12:37:00;15.40;;;9.70;;
70560;SDS011;58109;53.570;10.084;2023-05-10T12:39:41;17.97;;;9.80;;
70560;SDS011;58109;53.570;10.084;2023-05-10T12:42:11;12.67;;;8.67;;
70560;SDS011;58109;53.570;10.084;2023-05-10T12:44:39;12.93;;;9.17;;
70560;SDS011;58109;53.570;10.084;2023-05-10T12:47:07;20.00;;;9.87;;
70560;SDS011;58109;53.570;10.084;2023-05-10T12:49:35;13.83;;;9.20;;
70560;SDS011;58109;53.570;10.084;2023-05-10T12:52:03;14.53;;;9.27;;
70560;SDS011;58109;53.570;10.084;2023-05-10T12:54:29;16.67;;;10.40;;
70560;SDS011;58109;53.570;10.084;2023-05-10T12:56:54;14.80;;;9.13;;
70560;SDS011;58109;53.570;10.084;2023-05-10T12:59:19;15.43;;;10.40;;
70560;SDS011;58109;53.570;10.084;2023-05-10T13:01:47;14.10;;;8.80;;
70560;SDS011;58109;53.570;10.084;2023-05-10T13:04:13;17.60;;;10.97;;
70560;SDS011;58109;53.570;10.084;2023-05-10T13:06:42;15.27;;;9.57;;
70560;SDS011;58109;53.570;10.084;2023-05-10T13:09:08;15.53;;;9.40;;
70560;SDS011;58109;53.570;10.084;2023-05-10T13:11:34;14.13;;;9.37;;
70560;SDS011;58109;53.570;10.084;2023-05-10T13:14:00;13.17;;;8.03;;
70560;SDS011;58109;53.570;10.084;2023-05-10T13:16:25;11.93;;;7.90;;
70560;SDS011;58109;53.570;10.084;2023-05-10T13:18:51;11.13;;;6.90;;
70560;SDS011;58109;53.570;10.084;2023-05-10T13:21:21;12.53;;;8.67;;
70560;SDS011;58109;53.570;10.084;2023-05-10T13:23:46;13.03;;;10.03;;
70560;SDS011;58109;53.570;10.084;2023-05-10T13:26:14;14.50;;;8.23;;
70560;SDS011;58109;53.570;10.084;2023-05-10T13:28:39;13.67;;;9.57;;
70560;SDS011;58109;53.570;10.084;2023-05-10T13:31:05;15.23;;;8.77;;
70560;SDS011;58109;53.570;10.084;2023-05-10T13:33:31;13.40;;;9.63;;
70560;SDS011;58109;53.570;10.084;2023-05-10T13:35:56;12.10;;;8.80;;
70560;SDS011;58109;53.570;10.084;2023-05-10T13:38:21;12.47;;;8.77;;
70560;SDS011;58109;53.570;10.084;2023-05-10T13:40:49;12.27;;;8.60;;
70560;SDS011;58109;53.570;10.084;2023-05-10T13:43:20;16.40;;;8.87;;
70560;SDS011;58109;53.570;10.084;2023-05-10T13:45:45;11.00;;;7.57;;
70560;SDS011;58109;53.570;10.084;2023-05-10T13:48:13;13.83;;;8.00;;
70560;SDS011;58109;53.570;10.084;2023-05-10T13:50:39;11.00;;;7.80;;
70560;SDS011;58109;53.570;10.084;2023-05-10T13:53:05;11.00;;;8.37;;
70560;SDS011;58109;53.570;10.084;2023-05-10T13:55:32;11.77;;;7.50;;
70560;SDS011;58109;53.570;10.084;2023-05-10T13:57:58;11.97;;;8.30;;
70560;SDS011;58109;53.570;10.084;2023-05-10T14:00:23;9.00;;;6.80;;
70560;SDS011;58109;53.570;10.084;2023-05-10T14:02:52;11.00;;;7.83;;
70560;SDS011;58109;53.570;10.084;2023-05-10T14:05:17;10.20;;;7.27;;
70560;SDS011;58109;53.570;10.084;2023-05-10T14:07:42;12.13;;;6.00;;
70560;SDS011;58109;53.570;10.084;2023-05-10T14:10:08;16.90;;;6.43;;
70560;SDS011;58109;53.570;10.084;2023-05-10T14:12:37;7.60;;;6.10;;
70560;SDS011;58109;53.570;10.084;2023-05-10T14:15:02;8.57;;;5.70;;
70560;SDS011;58109;53.570;10.084;2023-05-10T14:17:30;9.80;;;6.57;;
70560;SDS011;58109;53.570;10.084;2023-05-10T14:19:56;6.00;;;5.13;;
70560;SDS011;58109;53.570;10.084;2023-05-10T14:22:23;6.67;;;5.50;;
70560;SDS011;58109;53.570;10.084;2023-05-10T14:24:49;11.80;;;5.50;;
70560;SDS011;58109;53.570;10.084;2023-05-10T14:27:15;8.87;;;5.83;;
70560;SDS011;58109;53.570;10.084;2023-05-10T14:29:40;6.73;;;5.17;;
70560;SDS011;58109;53.570;10.084;2023-05-10T14:32:06;8.90;;;5.20;;
70560;SDS011;58109;53.570;10.084;2023-05-10T14:34:32;8.63;;;5.37;;
70560;SDS011;58109;53.570;10.084;2023-05-10T14:36:59;8.30;;;5.50;;
70560;SDS011;58109;53.570;10.084;2023-05-10T14:39:25;8.63;;;5.47;;
70560;SDS011;58109;53.570;10.084;2023-05-10T14:41:50;9.10;;;5.83;;
70560;SDS011;58109;53.570;10.084;2023-05-10T14:44:17;11.70;;;6.20;;
70560;SDS011;58109;53.570;10.084;2023-05-10T14:46:43;9.43;;;4.80;;
70560;SDS011;58109;53.570;10.084;2023-05-10T14:49:08;8.00;;;5.60;;
70560;SDS011;58109;53.570;10.084;2023-05-10T14:51:34;7.33;;;5.57;;
70560;SDS011;58109;53.570;10.084;2023-05-10T14:54:02;8.23;;;5.30;;
70560;SDS011;58109;53.570;10.084;2023-05-10T14:56:31;10.60;;;5.00;;
70560;SDS011;58109;53.570;10.084;2023-05-10T14:58:56;9.97;;;6.27;;
70560;SDS011;58109;53.570;10.084;2023-05-10T15:01:22;9.33;;;5.77;;
70560;SDS011;58109;53.570;10.084;2023-05-10T15:03:47;16.20;;;6.53;;
70560;SDS011;58109;53.570;10.084;2023-05-10T15:06:15;15.63;;;5.97;;
70560;SDS011;58109;53.570;10.084;2023-05-10T15:08:41;8.27;;;5.57;;